San Clemente, CA (92672)

8:25 AM PDT on September 02, 2015 (GMT -0700)
The Coast | | Change Station
CLOSE
Current Station
Personal Weather Station
Location: San Clemente, CA
Elevation: 350 ft
Nearby Weather Stations

Elev 350 ft 33.45 °N, 117.64 °W | Updated 6 seconds ago

Overcast
Overcast
67.5 °F
Feels Like 67.5 °F
N
3.0
Wind Variable Wind from SSW
Gusts 6.0 mph

Today
High -- | Low -- °F
--% Chance of Precip.
Yesterday
High -- | Low -- °F
Precip. -- in
6:25 AM 7:14 PM
Waning Gibbous, 79% visible
Pressure 30.22 in
Visibility 7.0 miles
Clouds Scattered Clouds 2000 ft
Overcast 3000 ft
Dew Point 62 °F
Humidity 81%
Rainfall 0.00 in
Snow Depth Not available.
UV 0 out of 12
Pollen 7.00 out of 12
Air Quality Not available.
Flu Activity Not available.
METAR KNXF 021456Z AUTO 24004KT 7SM SCT020 OVC030 21/16 A2997 RMK AO2 SLP233 T02110161 53008 $
Pressure 30.22 in
Visibility 7.0 miles
Clouds Scattered Clouds 2000 ft
Overcast 3000 ft
Dew Point 62 °F
Humidity 81%
Rainfall 0.00 in
Snow Depth Not available.
UV 0 out of 12
Pollen 7.00 out of 12
Air Quality Not available.
Flu Activity Not available.
METAR KNXF 021456Z AUTO 24004KT 7SM SCT020 OVC030 21/16 A2997 RMK AO2 SLP233 T02110161 53008 $

10-Day Weather Forecast

×

Almanac

Astronomy

Sep. 02, 2015 Rise Set
Actual Time
Civil Twilight
Nautical Twilight
Astronomical Twilight
Moon
Length of Visible Light
Length of Day
Tomorrow will be .
, % of the Moon is Illuminated

Today's Extremes

State Highs State Lows

Community

WunderPhotos

Upload Photos

1,851,770 photos uploaded!

WunderBlogs® & News

Nearby

Air Quality

  Air Quality AQ Index Pollutant
Not available.

Snow Depth

Station Depth Elevation

Earthquake Activity

City Distance Mag. Time & Date
Minimum magnitude displayed is 2.5.

Coastal Water Temperatures

Place Temperature

Stations

Nearby Weather Stations

Station Location Temp. Windchill Dew Point Humidity Wind Precip. Elev Updated Type